createdAt,value
2019-05-18T00:01:53.736Z,90.20
2019-05-18T00:04:21.311Z,90.40
2019-05-18T00:06:50.280Z,90.80
2019-05-18T00:09:17.863Z,90.70
2019-05-18T00:11:46.000Z,91.00
2019-05-18T00:14:13.615Z,91.20
2019-05-18T00:16:41.964Z,91.60
2019-05-18T00:19:09.546Z,91.60
2019-05-18T00:21:37.929Z,91.90
2019-05-18T00:24:06.293Z,92.10
2019-05-18T00:26:33.871Z,92.10
2019-05-18T00:29:02.608Z,92.40
2019-05-18T00:31:30.231Z,92.40
2019-05-18T00:33:57.766Z,92.40
2019-05-18T00:36:25.365Z,92.40
2019-05-18T00:38:52.943Z,92.90
2019-05-18T00:41:20.563Z,92.30
2019-05-18T00:43:48.914Z,92.40
2019-05-18T00:46:16.495Z,92.30
2019-05-18T00:48:44.131Z,92.30
2019-05-18T00:51:11.712Z,92.20
2019-05-18T00:53:39.296Z,92.20
2019-05-18T00:56:06.920Z,92.20
2019-05-18T00:58:34.506Z,92.60
2019-05-18T01:01:02.088Z,92.00
2019-05-18T01:03:30.466Z,91.80
2019-05-18T01:05:58.806Z,91.70
2019-05-18T01:08:26.783Z,91.70
2019-05-18T01:10:54.363Z,91.70
2019-05-18T01:13:21.943Z,91.60
2019-05-18T01:15:50.314Z,91.70
2019-05-18T01:18:18.671Z,91.90
2019-05-18T01:20:46.291Z,91.90
2019-05-18T01:23:13.871Z,92.00
2019-05-18T01:25:41.508Z,92.60
2019-05-18T01:28:09.087Z,92.20
2019-05-18T01:30:36.667Z,92.10
2019-05-18T01:33:04.317Z,92.10
2019-05-18T01:35:31.900Z,92.20
2019-05-18T01:37:59.484Z,92.50
2019-05-18T01:40:28.142Z,92.00
2019-05-18T01:42:55.719Z,92.00
2019-05-18T01:45:23.301Z,92.00
2019-05-18T01:47:51.239Z,92.20
2019-05-18T01:50:18.823Z,92.70
2019-05-18T01:52:46.418Z,92.30
2019-05-18T01:55:14.361Z,92.30
2019-05-18T01:57:42.716Z,92.50
2019-05-18T02:00:10.335Z,92.50
2019-05-18T02:02:37.915Z,92.60
2019-05-18T02:05:05.496Z,92.70
2019-05-18T02:07:33.130Z,92.70
2019-05-18T02:10:00.712Z,92.70
2019-05-18T02:12:28.297Z,92.70
2019-05-18T02:14:55.911Z,92.70
2019-05-18T02:17:23.488Z,93.10
2019-05-18T02:19:51.066Z,92.60
2019-05-18T02:22:18.679Z,92.60
2019-05-18T02:24:46.255Z,92.60
2019-05-18T02:27:13.878Z,92.60
2019-05-18T02:29:41.455Z,92.60
2019-05-18T02:32:09.806Z,92.70
2019-05-18T02:34:37.410Z,92.60
2019-05-18T02:37:05.016Z,92.70
2019-05-18T02:39:32.599Z,92.70
2019-05-18T02:42:00.178Z,92.70
2019-05-18T02:44:28.569Z,92.80
2019-05-18T02:46:56.148Z,92.70
2019-05-18T02:49:23.732Z,92.80
2019-05-18T02:51:51.340Z,92.80
2019-05-18T02:54:19.687Z,93.00
2019-05-18T02:56:47.298Z,93.00
2019-05-18T02:59:14.904Z,93.10
2019-05-18T03:01:42.600Z,93.20
2019-05-18T03:04:10.950Z,93.30
2019-05-18T03:06:38.532Z,93.30
2019-05-18T03:09:06.144Z,93.40
2019-05-18T03:11:33.730Z,93.50
2019-05-18T03:14:01.308Z,93.60
2019-05-18T03:16:28.925Z,93.70
2019-05-18T03:19:07.558Z,93.80
2019-05-18T03:21:24.086Z,94.20
2019-05-18T03:23:51.711Z,93.60
2019-05-18T03:26:19.289Z,93.50
2019-05-18T03:28:46.864Z,93.50
2019-05-18T03:31:14.630Z,93.50
2019-05-18T03:33:42.054Z,93.60
2019-05-18T03:36:09.665Z,93.60
2019-05-18T03:38:37.244Z,93.70
2019-05-18T03:41:05.594Z,93.80
2019-05-18T03:43:34.515Z,93.70
2019-05-18T03:46:02.105Z,93.70
2019-05-18T03:48:30.423Z,94.00
2019-05-18T03:50:58.036Z,93.80
2019-05-18T03:53:26.384Z,94.30
2019-05-18T03:55:53.966Z,94.20
2019-05-18T03:58:22.334Z,93.70
2019-05-18T04:00:49.913Z,93.70
2019-05-18T04:03:18.336Z,93.20
2019-05-18T04:05:45.890Z,93.20
2019-05-18T04:08:13.471Z,93.30
2019-05-18T04:10:41.086Z,93.30
2019-05-18T04:13:08.682Z,93.40
2019-05-18T04:15:36.280Z,94.00
2019-05-18T04:18:03.859Z,93.40
2019-05-18T04:20:32.267Z,93.40
2019-05-18T04:22:59.837Z,93.30
2019-05-18T04:25:27.728Z,93.40
2019-05-18T04:27:55.355Z,93.50
2019-05-18T04:30:23.685Z,93.60
2019-05-18T04:32:52.575Z,93.70
2019-05-18T04:35:20.173Z,93.80
2019-05-18T04:37:48.520Z,93.90
2019-05-18T04:40:16.100Z,93.90
2019-05-18T04:42:44.493Z,94.20
2019-05-18T04:45:12.848Z,94.00
2019-05-18T04:47:40.427Z,94.00
2019-05-18T04:50:08.279Z,94.00
2019-05-18T04:52:35.842Z,94.30
2019-05-18T04:55:03.953Z,93.80
2019-05-18T04:57:31.537Z,93.70
2019-05-18T04:59:59.119Z,93.70
2019-05-18T05:02:26.764Z,93.70
2019-05-18T05:04:56.800Z,93.70
2019-05-18T05:07:21.928Z,93.70
2019-05-18T05:09:49.543Z,94.10
2019-05-18T05:12:17.526Z,93.80
2019-05-18T05:14:45.107Z,93.30
2019-05-18T05:17:12.726Z,93.30
2019-05-18T05:19:40.615Z,93.30
2019-05-18T05:22:08.244Z,93.70
2019-05-18T05:24:35.832Z,93.30
2019-05-18T05:27:03.416Z,92.80
2019-05-18T05:29:31.028Z,93.20
2019-05-18T05:31:58.614Z,93.00
2019-05-18T05:34:26.200Z,93.10
2019-05-18T05:36:54.074Z,93.30
2019-05-18T05:39:21.655Z,93.70
2019-05-18T05:41:49.241Z,93.30
2019-05-18T05:44:16.897Z,93.30
2019-05-18T05:46:45.783Z,93.50
2019-05-18T05:49:13.317Z,93.50
2019-05-18T05:51:40.925Z,93.60
2019-05-18T05:54:08.505Z,93.70
2019-05-18T05:56:36.133Z,93.80
2019-05-18T05:59:05.075Z,94.20
2019-05-18T06:01:32.662Z,93.90
2019-05-18T06:04:00.288Z,94.00
2019-05-18T06:06:27.873Z,94.00
2019-05-18T06:08:55.456Z,94.50
2019-05-18T06:11:23.086Z,94.00
2019-05-18T06:13:50.665Z,94.00
2019-05-18T06:16:18.244Z,94.00
2019-05-18T06:18:45.901Z,93.40
2019-05-18T06:21:13.493Z,93.00
2019-05-18T06:23:41.082Z,93.10
2019-05-18T06:26:08.740Z,93.30
2019-05-18T06:28:37.055Z,93.40
2019-05-18T06:31:04.643Z,93.40
2019-05-18T06:33:32.791Z,93.50
2019-05-18T06:36:00.378Z,93.50
2019-05-18T06:38:28.729Z,94.20
2019-05-18T06:40:56.356Z,93.80
2019-05-18T06:43:23.940Z,93.30
2019-05-18T06:45:51.526Z,93.10
2019-05-18T06:48:19.150Z,93.10
2019-05-18T06:50:46.786Z,93.10
2019-05-18T06:53:14.343Z,93.20
2019-05-18T06:55:42.684Z,92.80
2019-05-18T06:58:10.841Z,92.80
2019-05-18T07:00:38.428Z,92.80
2019-05-18T07:03:06.003Z,92.70
2019-05-18T07:05:33.664Z,92.00
2019-05-18T07:08:01.251Z,92.20
2019-05-18T07:10:28.821Z,92.20
2019-05-18T07:12:56.453Z,92.40
2019-05-18T07:15:24.796Z,92.50
2019-05-18T07:17:52.373Z,92.50
2019-05-18T07:20:20.001Z,92.50
2019-05-18T07:22:47.591Z,92.50
2019-05-18T07:25:15.182Z,92.50
2019-05-18T07:27:42.780Z,92.30
2019-05-18T07:30:10.370Z,92.60
2019-05-18T07:32:38.007Z,92.10
2019-05-18T07:35:06.082Z,92.00
2019-05-18T07:37:33.482Z,91.90
2019-05-18T07:40:01.107Z,91.70
2019-05-18T07:42:28.688Z,91.60
2019-05-18T07:44:56.277Z,91.30
2019-05-18T07:47:23.912Z,90.60
2019-05-18T07:49:51.494Z,90.70
2019-05-18T07:52:19.076Z,90.20
2019-05-18T07:54:47.460Z,86.30
2019-05-18T07:57:15.797Z,86.30
2019-05-18T07:59:43.373Z,86.30
2019-05-18T08:02:10.969Z,86.40
2019-05-18T08:04:39.853Z,86.10
2019-05-18T08:07:06.752Z,85.60
2019-05-18T08:09:34.309Z,85.40
2019-05-18T08:12:01.890Z,85.50
2019-05-18T08:14:30.377Z,84.40
2019-05-18T08:16:57.949Z,84.20
2019-05-18T08:19:25.547Z,84.00
2019-05-18T08:21:53.842Z,84.30
2019-05-18T08:24:20.788Z,83.70
2019-05-18T08:26:48.380Z,82.20
2019-05-18T08:29:16.520Z,81.20
2019-05-18T08:31:44.098Z,81.00
2019-05-18T08:34:11.862Z,81.30
2019-05-18T08:36:39.478Z,81.00
2019-05-18T08:39:07.863Z,80.30
2019-05-18T08:41:35.472Z,80.30
2019-05-18T08:44:03.053Z,80.00
2019-05-18T08:46:30.636Z,79.60
2019-05-18T08:48:59.023Z,78.20
2019-05-18T08:51:27.374Z,78.10
2019-05-18T08:53:54.974Z,78.00
2019-05-18T08:56:22.620Z,77.40
2019-05-18T08:58:50.972Z,77.30
2019-05-18T09:01:18.556Z,77.40
2019-05-18T09:03:46.941Z,77.00
2019-05-18T09:06:15.313Z,77.10
2019-05-18T09:08:42.959Z,77.10
2019-05-18T09:11:10.544Z,76.30
2019-05-18T09:13:38.897Z,76.30
2019-05-18T09:16:06.544Z,76.10
2019-05-18T09:18:34.192Z,75.40
2019-05-18T09:21:01.761Z,75.30
2019-05-18T09:23:29.878Z,75.10
2019-05-18T09:25:57.451Z,75.30
2019-05-18T09:28:25.802Z,74.30
2019-05-18T09:30:53.428Z,74.20
2019-05-18T09:33:21.013Z,73.80
2019-05-18T09:35:48.595Z,73.70
2019-05-18T09:38:16.212Z,73.50
2019-05-18T09:40:44.025Z,73.60
2019-05-18T09:43:11.658Z,72.00
2019-05-18T09:45:39.254Z,71.60
2019-05-18T09:48:06.841Z,70.20
2019-05-18T09:50:35.701Z,69.80
2019-05-18T09:53:03.302Z,69.80
2019-05-18T09:55:31.643Z,69.70
2019-05-18T09:57:59.272Z,69.70
2019-05-18T10:00:26.857Z,69.30
2019-05-18T10:02:54.440Z,67.60
2019-05-18T10:05:22.924Z,67.50
2019-05-18T10:10:10.825Z,67.10
2019-05-18T10:12:38.424Z,67.00
2019-05-18T10:15:06.006Z,66.80
2019-05-18T10:17:34.994Z,66.70
2019-05-18T10:20:06.021Z,66.80
2019-05-18T10:22:33.621Z,66.20
2019-05-18T10:25:01.254Z,65.40
2019-05-18T10:27:28.838Z,65.00
2019-05-18T10:29:57.214Z,64.80
2019-05-18T10:32:25.600Z,64.50
2019-05-18T10:34:53.952Z,63.80
2019-05-18T10:37:21.533Z,63.80
2019-05-18T10:39:49.905Z,63.50
2019-05-18T10:44:54.527Z,62.80
2019-05-18T10:47:22.107Z,62.10
2019-05-18T10:49:49.693Z,59.70
2019-05-18T10:52:18.092Z,59.80
2019-05-18T10:54:45.701Z,59.80
2019-05-18T10:57:13.287Z,59.90
2019-05-18T10:59:41.687Z,59.80
2019-05-18T11:02:09.272Z,59.80
2019-05-18T11:04:36.886Z,59.70
2019-05-18T11:07:04.514Z,59.20
2019-05-18T11:09:33.379Z,59.10
2019-05-18T11:12:00.965Z,59.30
2019-05-18T11:14:28.585Z,58.80
2019-05-18T11:16:56.381Z,58.40
2019-05-18T11:19:24.688Z,58.90
2019-05-18T11:21:52.266Z,58.90
2019-05-18T11:24:19.841Z,59.00
2019-05-18T11:26:47.985Z,59.30
2019-05-18T11:29:15.570Z,59.70
2019-05-18T11:31:43.922Z,60.80
2019-05-18T11:34:11.561Z,60.80
2019-05-18T11:36:39.143Z,61.30
2019-05-18T11:39:06.720Z,61.90
2019-05-18T11:41:34.337Z,61.90
2019-05-18T11:44:01.922Z,61.20
2019-05-18T11:46:29.551Z,61.20
2019-05-18T11:48:57.142Z,61.90
2019-05-18T11:51:24.720Z,62.50
2019-05-18T11:53:58.230Z,61.70
2019-05-18T11:56:19.969Z,60.90
2019-05-18T11:58:48.316Z,60.30
2019-05-18T12:01:16.500Z,60.10
2019-05-18T12:03:44.664Z,59.70
2019-05-18T12:06:12.235Z,59.10
2019-05-18T12:08:39.865Z,59.00
2019-05-18T12:11:07.439Z,58.80
2019-05-18T12:13:35.027Z,58.40
2019-05-18T12:16:02.636Z,58.70
2019-05-18T12:18:30.428Z,59.10
2019-05-18T12:20:58.058Z,59.00
2019-05-18T12:23:25.879Z,58.90
2019-05-18T12:25:53.461Z,58.90
2019-05-18T12:28:21.091Z,58.80
2019-05-18T12:30:48.675Z,58.80
2019-05-18T12:33:16.761Z,59.00
2019-05-18T12:35:45.152Z,58.70
2019-05-18T12:38:13.500Z,58.20
2019-05-18T12:40:41.097Z,58.20
2019-05-18T12:43:09.857Z,57.40
2019-05-18T12:45:37.433Z,57.30
2019-05-18T12:48:05.789Z,55.30
2019-05-18T12:50:33.398Z,55.20
2019-05-18T12:53:00.982Z,55.10
2019-05-18T12:55:28.581Z,54.90
2019-05-18T12:57:56.250Z,55.00
2019-05-18T13:00:23.833Z,55.00
2019-05-18T13:02:52.229Z,55.30
2019-05-18T13:05:19.807Z,55.30
2019-05-18T13:07:47.385Z,55.20
2019-05-18T13:10:15.017Z,54.70
2019-05-18T13:12:42.594Z,54.20
2019-05-18T13:15:10.180Z,53.30
2019-05-18T13:17:37.814Z,53.30
2019-05-18T13:20:08.316Z,53.80
2019-05-18T13:22:36.667Z,54.10
2019-05-18T13:25:04.273Z,54.00
2019-05-18T13:27:39.488Z,54.10
2019-05-18T13:29:59.964Z,53.90
2019-05-18T13:32:27.583Z,53.50
2019-05-18T13:34:55.168Z,53.30
2019-05-18T13:37:22.807Z,53.20
2019-05-18T13:39:50.388Z,53.40
2019-05-18T13:42:17.971Z,53.60
2019-05-18T13:44:45.584Z,53.00
2019-05-18T13:47:13.177Z,53.00
2019-05-18T13:49:40.772Z,52.90
2019-05-18T13:52:08.386Z,53.70
2019-05-18T13:54:35.976Z,52.90
2019-05-18T13:57:03.616Z,52.20
2019-05-18T13:59:31.232Z,52.20
2019-05-18T14:01:59.581Z,51.80
2019-05-18T14:04:27.253Z,51.70
2019-05-18T14:06:54.833Z,51.70
2019-05-18T14:09:22.415Z,51.70
2019-05-18T14:11:50.043Z,51.00
2019-05-18T14:14:17.629Z,50.30
2019-05-18T14:16:45.980Z,49.60
2019-05-18T14:19:13.617Z,49.60
2019-05-18T14:21:41.184Z,49.10
2019-05-18T14:24:08.798Z,48.90
2019-05-18T14:26:37.558Z,48.50
2019-05-18T14:29:05.140Z,48.50
2019-05-18T14:31:33.495Z,47.40
2019-05-18T14:34:01.681Z,47.30
2019-05-18T14:36:29.615Z,47.60
2019-05-18T14:38:57.197Z,47.40
2019-05-18T14:41:24.838Z,47.40
2019-05-18T14:43:52.420Z,47.60
2019-05-18T14:46:20.005Z,48.10
2019-05-18T14:48:48.398Z,48.00
2019-05-18T14:51:16.779Z,47.60
2019-05-18T14:53:44.380Z,47.50
2019-05-18T14:56:12.042Z,47.30
2019-05-18T14:58:39.633Z,47.30
2019-05-18T15:01:07.215Z,47.40
2019-05-18T15:03:35.631Z,47.20
2019-05-18T15:06:03.210Z,47.20
2019-05-18T15:08:30.795Z,46.80
2019-05-18T15:10:58.438Z,46.60
2019-05-18T15:13:26.028Z,46.30
2019-05-18T15:15:53.612Z,45.90
2019-05-18T15:18:22.581Z,46.60
2019-05-18T15:20:50.202Z,46.00
2019-05-18T15:23:17.775Z,44.90
2019-05-18T15:25:50.969Z,44.00
2019-05-18T15:28:12.999Z,43.70
2019-05-18T15:30:40.581Z,44.00
2019-05-18T15:33:08.240Z,44.50
2019-05-18T15:35:35.815Z,44.60
2019-05-18T15:38:03.398Z,44.90
2019-05-18T15:40:31.768Z,44.50
2019-05-18T15:42:59.363Z,44.50
2019-05-18T15:45:27.032Z,44.10
2019-05-18T15:47:54.627Z,43.70
2019-05-18T15:50:22.218Z,43.90
2019-05-18T15:52:49.826Z,43.30
2019-05-18T15:55:17.404Z,43.20
2019-05-18T15:57:45.607Z,43.60
2019-05-18T16:00:13.193Z,44.20
2019-05-18T16:02:41.591Z,44.60
2019-05-18T16:05:09.178Z,44.50
2019-05-18T16:07:36.756Z,44.90
2019-05-18T16:10:04.342Z,44.70
2019-05-18T16:12:31.976Z,45.10
2019-05-18T16:14:59.565Z,45.00
2019-05-18T16:17:39.068Z,45.30
2019-05-18T16:19:56.044Z,46.50
2019-05-18T16:22:23.574Z,46.40
2019-05-18T16:24:51.153Z,46.30
2019-05-18T16:27:19.538Z,46.80
2019-05-18T16:29:47.887Z,46.70
2019-05-18T16:32:15.471Z,46.60
2019-05-18T16:34:43.847Z,47.70
2019-05-18T16:37:12.208Z,46.90
2019-05-18T16:39:39.843Z,47.30
2019-05-18T16:42:07.434Z,47.60
2019-05-18T16:44:35.019Z,47.50
2019-05-18T16:47:03.989Z,48.10
2019-05-18T16:49:31.576Z,48.10
2019-05-18T16:51:59.959Z,48.20
2019-05-18T16:54:27.541Z,47.90
2019-05-18T16:56:55.881Z,48.40
2019-05-18T16:59:23.557Z,48.30
2019-05-18T17:01:51.906Z,48.20
2019-05-18T17:04:19.482Z,48.20
2019-05-18T17:06:47.108Z,48.50
2019-05-18T17:09:14.688Z,48.70
2019-05-18T17:11:42.266Z,48.70
2019-05-18T17:14:09.930Z,48.90
2019-05-18T17:16:37.519Z,49.90
2019-05-18T17:19:05.860Z,49.90
2019-05-18T17:21:34.078Z,49.80
2019-05-18T17:24:02.425Z,50.00
2019-05-18T17:26:30.001Z,49.90
2019-05-18T17:28:57.933Z,50.20
2019-05-18T17:31:25.508Z,50.10
2019-05-18T17:33:53.090Z,50.30
2019-05-18T17:36:20.700Z,50.70
2019-05-18T17:38:48.287Z,51.00
2019-05-18T17:41:16.405Z,51.20
2019-05-18T17:43:44.834Z,51.90
2019-05-18T17:46:13.128Z,51.50
2019-05-18T17:48:40.806Z,51.50
2019-05-18T17:51:08.379Z,51.40
2019-05-18T17:53:37.125Z,51.90
2019-05-18T17:56:04.756Z,51.30
2019-05-18T17:58:32.340Z,51.40
2019-05-18T18:00:59.951Z,52.00
2019-05-18T18:03:27.568Z,52.50
2019-05-18T18:05:55.148Z,53.00
2019-05-18T18:08:22.737Z,53.50
2019-05-18T18:10:51.119Z,55.00
2019-05-18T18:13:19.467Z,54.60
2019-05-18T18:15:47.101Z,54.60
2019-05-18T18:18:14.682Z,55.10
2019-05-18T18:20:42.261Z,55.40
2019-05-18T18:23:09.892Z,56.10
2019-05-18T18:25:37.475Z,56.90
2019-05-18T18:28:05.060Z,59.60
2019-05-18T18:30:32.689Z,58.90
2019-05-18T18:33:00.272Z,59.40
2019-05-18T18:35:27.865Z,60.70
2019-05-18T18:37:57.141Z,61.00
2019-05-18T18:40:24.710Z,61.00
2019-05-18T18:42:52.298Z,60.60
2019-05-18T18:45:19.919Z,61.80
2019-05-18T18:47:47.494Z,61.50
2019-05-18T18:50:15.145Z,62.20
2019-05-18T18:52:42.722Z,62.70
2019-05-18T18:55:10.299Z,63.10
2019-05-18T18:57:41.694Z,64.10
2019-05-18T19:00:06.300Z,63.90
2019-05-18T19:02:33.892Z,64.50
2019-05-18T19:05:02.247Z,65.60
2019-05-18T19:07:29.860Z,65.50
2019-05-18T19:09:57.492Z,65.90
2019-05-18T19:12:25.071Z,66.70
2019-05-18T19:14:53.420Z,67.20
2019-05-18T19:17:21.497Z,66.30
2019-05-18T19:19:49.097Z,66.70
2019-05-18T19:22:16.677Z,67.10
2019-05-18T19:24:44.305Z,68.80
2019-05-18T19:27:13.483Z,69.60
2019-05-18T19:29:41.052Z,69.60
2019-05-18T19:32:08.687Z,70.50
2019-05-18T19:34:36.264Z,71.40
2019-05-18T19:37:03.845Z,72.00
2019-05-18T19:39:32.617Z,73.00
2019-05-18T19:42:00.197Z,72.90
2019-05-18T19:44:27.773Z,73.30
2019-05-18T19:46:56.638Z,73.60
2019-05-18T19:49:24.228Z,73.60
2019-05-18T19:51:52.600Z,74.30
2019-05-18T19:54:20.997Z,75.00
2019-05-18T19:56:48.601Z,74.90
2019-05-18T19:59:16.168Z,76.10
2019-05-18T20:01:43.790Z,77.40
2019-05-18T20:04:11.392Z,78.70
2019-05-18T20:06:38.968Z,79.60
2019-05-18T20:09:06.603Z,80.60
2019-05-18T20:11:34.180Z,81.60
2019-05-18T20:14:01.758Z,82.30
2019-05-18T20:16:29.392Z,82.90
2019-05-18T20:18:56.978Z,83.40
2019-05-18T20:21:24.568Z,83.90
2019-05-18T20:23:52.959Z,87.00
2019-05-18T20:26:20.544Z,86.90
2019-05-18T20:28:48.124Z,86.10
2019-05-18T20:31:15.790Z,86.10
2019-05-18T20:33:43.380Z,86.30
2019-05-18T20:36:11.513Z,86.80
2019-05-18T20:38:39.140Z,88.10
2019-05-18T20:41:06.727Z,87.10
2019-05-18T20:43:34.309Z,87.10
2019-05-18T20:46:01.936Z,87.40
2019-05-18T20:48:29.512Z,87.60
2019-05-18T20:50:57.092Z,87.70
2019-05-18T20:53:24.699Z,88.00
2019-05-18T20:55:53.098Z,89.40
2019-05-18T20:58:20.680Z,89.30
2019-05-18T21:00:48.272Z,88.40
2019-05-18T21:03:15.895Z,88.10
2019-05-18T21:05:43.481Z,88.00
2019-05-18T21:08:11.062Z,88.00
2019-05-18T21:10:38.688Z,88.50
2019-05-18T21:13:06.272Z,88.90
2019-05-18T21:15:33.855Z,89.20
2019-05-18T21:18:01.484Z,90.10
2019-05-18T21:20:29.062Z,89.90
2019-05-18T21:22:56.650Z,90.10
2019-05-18T21:25:25.075Z,90.90
2019-05-18T21:27:52.656Z,90.80
2019-05-18T21:30:20.248Z,90.40
2019-05-18T21:32:47.878Z,90.40
2019-05-18T21:35:15.465Z,90.40
2019-05-18T21:37:43.040Z,90.50
2019-05-18T21:40:11.412Z,90.50
2019-05-18T21:42:38.997Z,90.50
2019-05-18T21:45:07.402Z,90.70
2019-05-18T21:47:34.989Z,90.70
2019-05-18T21:50:02.647Z,90.70
2019-05-18T21:52:30.262Z,90.80
2019-05-18T21:54:58.616Z,90.70
2019-05-18T21:57:26.195Z,90.70
2019-05-18T21:59:54.587Z,90.80
2019-05-18T22:02:22.939Z,90.90
2019-05-18T22:04:50.506Z,90.90
2019-05-18T22:07:18.195Z,91.00
2019-05-18T22:09:45.784Z,91.10
2019-05-18T22:12:13.368Z,91.10
2019-05-18T22:14:40.989Z,91.10
2019-05-18T22:17:08.566Z,91.10
2019-05-18T22:19:36.200Z,91.30
2019-05-18T22:22:03.783Z,90.90
2019-05-18T22:24:31.364Z,90.90
2019-05-18T22:26:59.461Z,90.80
2019-05-18T22:29:27.039Z,90.80
2019-05-18T22:31:55.386Z,91.20
2019-05-18T22:34:23.007Z,90.80
2019-05-18T22:36:50.587Z,90.80
2019-05-18T22:39:18.212Z,91.20
2019-05-18T22:41:46.567Z,90.70
2019-05-18T22:44:14.155Z,90.70
2019-05-18T22:46:41.810Z,91.10
2019-05-18T22:49:10.155Z,90.80
2019-05-18T22:51:37.732Z,90.80
2019-05-18T22:54:05.383Z,90.80
2019-05-18T22:56:32.955Z,90.90
2019-05-18T22:59:00.536Z,90.90
2019-05-18T23:01:28.149Z,91.00
2019-05-18T23:03:55.732Z,91.20
2019-05-18T23:06:23.366Z,91.10
2019-05-18T23:08:50.951Z,91.10
2019-05-18T23:11:18.532Z,91.10
2019-05-18T23:13:46.161Z,91.20
2019-05-18T23:16:13.753Z,91.40
2019-05-18T23:18:54.499Z,91.80
2019-05-18T23:21:09.733Z,91.60
2019-05-18T23:23:38.075Z,91.20
2019-05-18T23:26:05.657Z,91.20
2019-05-18T23:28:34.023Z,91.40
2019-05-18T23:31:01.610Z,91.40
2019-05-18T23:33:29.992Z,91.70
2019-05-18T23:35:58.340Z,91.90
2019-05-18T23:38:25.925Z,91.90
2019-05-18T23:40:54.313Z,92.60
2019-05-18T23:43:22.666Z,92.20
2019-05-18T23:45:50.244Z,92.10
2019-05-18T23:48:18.195Z,92.00
2019-05-18T23:50:45.775Z,92.40
2019-05-18T23:53:14.127Z,92.10
2019-05-18T23:55:41.750Z,92.00
2019-05-18T23:58:09.337Z,91.60
